Silver Shadow — C6FN6 — position and weather

sailwx.info

Track history (hours):
 
Tides and Currents Weather Stations Pressure Air Temp Water Temp Dewpoint Dewpoint Depression Visibility Wind Speed Wind Dir Waves Ship Positions

Silver Shadow

Operator: V Ships Leisure SAM

Last reported at 2015-May-29 06:27 UTC. Time now 2015-May-29 08:24 UTC.
Position N 49°39' W 124°39'.

Length 186 m; draft 6.1 m.

Type: Passenger vessel. MMSI: 308628000.

Date/timePositionNaut miles runAvg speedWind from/ knotsBaromVisibWave heightAir tempDewpointWater temp
2015-May-29 06:27N 49°39' W 124°39'1212.7
2015-May-29 05:29N 49°29' W 124°28'1112.3
2015-May-29 04:33N 49°24' W 124°12'1312.7
2015-May-29 03:33N 49°21' W 123°53'1312.7
2015-May-29 02:33N 49°19' W 123°34'1312.7
2015-May-29 01:33N 49°19' W 123°15'6 5.5
2015-May-29 00:33N 49°17' W 123°07'0 0.0
2015-May-28 23:33N 49°17' W 123°07'0 0.0
2015-May-28 22:33N 49°17' W 123°07'0 0.0
2015-May-28 21:33N 49°17' W 123°07'0 0.0
2015-May-28 20:33N 49°17' W 123°07'0 0.0
2015-May-28 19:33N 49°17' W 123°07'0 0.0
2015-May-28 18:33N 49°17' W 123°07'0 0.0
2015-May-28 17:33N 49°17' W 123°07'0 0.0
2015-May-28 16:33N 49°17' W 123°07'0 0.0
2015-May-28 15:33N 49°17' W 123°07'1 1.4
2015-May-28 14:34N 49°19' W 123°08'10 9.9
2015-May-28 13:33N 49°18' W 123°23'9 8.7
2015-May-28 12:34N 49°18' W 123°36'9 8.5
2015-May-28 11:34N 49°20' W 123°49'9 8.7
2015-May-28 10:33N 49°23' W 124°02'9 8.6
2015-May-28 09:34N 49°24' W 124°14'9 8.4
2015-May-28 08:32N 49°28' W 124°27'11 8.5
2015-May-28 07:17N 49°36' W 124°38'6 8.5
2015-May-28 06:32N 49°40' W 124°45'10 8.8
2015-May-28 05:24N 49°48' W 124°55'7112.1
2015-May-27 23:33N 50°30' W 126°24'1313.0
2015-May-27 22:32N 50°35' W 126°43'1615.6
2015-May-27 21:31N 50°44' W 127°04'1718.0
2015-May-27 20:33N 50°50' W 127°29'1615.9
2015-May-27 19:34N 50°59' W 127°50'1716.1
2015-May-27 18:29N 51°08' W 128°14'1716.5
2015-May-27 17:29N 51°20' W 128°32'31712.4
2015-May-26 16:00N 56°00' W 132°42'   340 / 71019.5 5.4 9.0 10.5
2015-May-23 03:16N 59°15' W 139°40'  
2015-May-20 16:07N 59°48' W 139°42'3111.5 160 / 71023.0 1.1 12.0 8.7
2015-May-20 13:25N 59°17' W 139°42'121 4.2
2015-May-19 08:25N 58°18' W 136°18'1315.4
2015-May-19 07:34N 58°19' W 135°53'1616.0
2015-May-19 06:33N 58°14' W 135°24'  
Track history (hours):
 
Tides and Currents Weather Stations Pressure Air Temp Water Temp Dewpoint Dewpoint Depression Visibility Wind Speed Wind Dir Waves Ship Positions

Silver Shadow

Operator: V Ships Leisure SAM

Last reported at 2015-May-29 06:27 UTC. Time now 2015-May-29 08:24 UTC.
Position N 49°39' W 124°39'.

Length 186 m; draft 6.1 m.

Type: Passenger vessel. MMSI: 308628000.

Date/timePositionNaut miles runAvg speedWind from/ knotsBaromVisibWave heightAir tempDewpointWater temp
2015-May-29 06:27N 49°39' W 124°39'1212.7
2015-May-29 05:29N 49°29' W 124°28'1112.3
2015-May-29 04:33N 49°24' W 124°12'1312.7
2015-May-29 03:33N 49°21' W 123°53'1312.7
2015-May-29 02:33N 49°19' W 123°34'1312.7
2015-May-29 01:33N 49°19' W 123°15'6 5.5
2015-May-29 00:33N 49°17' W 123°07'0 0.0
2015-May-28 23:33N 49°17' W 123°07'0 0.0
2015-May-28 22:33N 49°17' W 123°07'0 0.0
2015-May-28 21:33N 49°17' W 123°07'0 0.0
2015-May-28 20:33N 49°17' W 123°07'0 0.0
2015-May-28 19:33N 49°17' W 123°07'0 0.0
2015-May-28 18:33N 49°17' W 123°07'0 0.0
2015-May-28 17:33N 49°17' W 123°07'0 0.0
2015-May-28 16:33N 49°17' W 123°07'0 0.0
2015-May-28 15:33N 49°17' W 123°07'1 1.4
2015-May-28 14:34N 49°19' W 123°08'10 9.9
2015-May-28 13:33N 49°18' W 123°23'9 8.7
2015-May-28 12:34N 49°18' W 123°36'9 8.5
2015-May-28 11:34N 49°20' W 123°49'9 8.7
2015-May-28 10:33N 49°23' W 124°02'9 8.6
2015-May-28 09:34N 49°24' W 124°14'9 8.4
2015-May-28 08:32N 49°28' W 124°27'11 8.5
2015-May-28 07:17N 49°36' W 124°38'6 8.5
2015-May-28 06:32N 49°40' W 124°45'10 8.8
2015-May-28 05:24N 49°48' W 124°55'7112.1
2015-May-27 23:33N 50°30' W 126°24'1313.0
2015-May-27 22:32N 50°35' W 126°43'1615.6
2015-May-27 21:31N 50°44' W 127°04'1718.0
2015-May-27 20:33N 50°50' W 127°29'1615.9
2015-May-27 19:34N 50°59' W 127°50'1716.1
2015-May-27 18:29N 51°08' W 128°14'1716.5
2015-May-27 17:29N 51°20' W 128°32'31712.4
2015-May-26 16:00N 56°00' W 132°42'   340 / 71019.5 5.4 9.0 10.5
2015-May-23 03:16N 59°15' W 139°40'  
2015-May-20 16:07N 59°48' W 139°42'3111.5 160 / 71023.0 1.1 12.0 8.7
2015-May-20 13:25N 59°17' W 139°42'121 4.2
2015-May-19 08:25N 58°18' W 136°18'1315.4
2015-May-19 07:34N 58°19' W 135°53'1616.0
2015-May-19 06:33N 58°14' W 135°24'  

Dump ship's entire track history